createdAt,value
2019-05-28T00:00:03.601Z,15.46
2019-05-28T00:01:03.616Z,15.43
2019-05-28T00:02:03.567Z,15.49
2019-05-28T00:03:03.573Z,15.40
2019-05-28T00:04:03.585Z,15.57
2019-05-28T00:05:03.540Z,15.57
2019-05-28T00:06:03.740Z,15.51
2019-05-28T00:07:03.547Z,15.46
2019-05-28T00:08:03.500Z,15.44
2019-05-28T00:09:03.498Z,15.51
2019-05-28T00:10:03.812Z,15.52
2019-05-28T00:11:03.479Z,15.42
2019-05-28T00:12:03.523Z,15.47
2019-05-28T00:13:03.437Z,15.43
2019-05-28T00:14:03.435Z,15.46
2019-05-28T00:15:03.444Z,15.51
2019-05-28T00:16:03.410Z,15.43
2019-05-28T00:17:03.413Z,15.43
2019-05-28T00:18:03.423Z,15.43
2019-05-28T00:19:03.369Z,15.40
2019-05-28T00:20:03.366Z,15.37
2019-05-28T00:21:03.385Z,15.42
2019-05-28T00:22:03.345Z,15.36
2019-05-28T00:23:03.358Z,15.39
2019-05-28T00:24:03.349Z,15.31
2019-05-28T00:25:03.314Z,15.36
2019-05-28T00:26:03.311Z,15.33
2019-05-28T00:27:03.279Z,15.33
2019-05-28T00:28:03.354Z,15.33
2019-05-28T00:29:03.287Z,15.31
2019-05-28T00:30:18.419Z,15.35
2019-05-28T00:31:04.259Z,15.36
2019-05-28T00:32:03.252Z,15.28
2019-05-28T00:33:03.223Z,15.37
2019-05-28T00:34:03.224Z,15.27
2019-05-28T00:35:03.195Z,15.28
2019-05-28T00:36:03.181Z,15.25
2019-05-28T00:37:03.190Z,15.14
2019-05-28T00:38:03.186Z,15.19
2019-05-28T00:39:03.196Z,15.15
2019-05-28T00:40:03.158Z,15.24
2019-05-28T00:41:03.129Z,15.19
2019-05-28T00:42:03.116Z,15.17
2019-05-28T00:43:03.125Z,15.15
2019-05-28T00:44:03.131Z,15.09
2019-05-28T00:45:03.133Z,15.14
2019-05-28T00:46:03.094Z,15.10
2019-05-28T00:47:03.212Z,15.14
2019-05-28T00:48:03.050Z,15.18
2019-05-28T00:49:03.056Z,15.06
2019-05-28T00:50:03.074Z,15.14
2019-05-28T00:51:03.041Z,15.09
2019-05-28T00:52:03.060Z,15.17
2019-05-28T00:53:03.014Z,15.02
2019-05-28T00:54:02.991Z,15.09
2019-05-28T00:55:03.007Z,15.10
2019-05-28T00:56:02.991Z,15.11
2019-05-28T00:57:02.990Z,15.11
2019-05-28T00:58:02.937Z,15.14
2019-05-28T00:59:02.948Z,15.07
2019-05-28T01:00:02.957Z,14.97
2019-05-28T01:01:02.918Z,15.03
2019-05-28T01:02:02.921Z,15.06
2019-05-28T01:03:02.907Z,15.02
2019-05-28T01:04:02.879Z,15.02
2019-05-28T01:05:02.941Z,15.00
2019-05-28T01:06:02.856Z,14.96
2019-05-28T01:07:02.859Z,14.97
2019-05-28T01:08:02.859Z,15.03
2019-05-28T01:09:02.860Z,15.03
2019-05-28T01:10:02.872Z,15.04
2019-05-28T01:11:02.822Z,15.09
2019-05-28T01:12:02.802Z,15.07
2019-05-28T01:13:02.839Z,15.06
2019-05-28T01:14:02.807Z,15.00
2019-05-28T01:15:02.776Z,14.99
2019-05-28T01:16:02.914Z,14.94
2019-05-28T01:17:02.731Z,14.92
2019-05-28T01:18:02.744Z,14.88
2019-05-28T01:19:02.750Z,14.91
2019-05-28T01:20:02.737Z,14.82
2019-05-28T01:21:02.686Z,14.84
2019-05-28T01:22:02.691Z,14.86
2019-05-28T01:23:02.762Z,14.85
2019-05-28T01:24:02.729Z,14.81
2019-05-28T01:25:02.670Z,14.79
2019-05-28T01:26:02.670Z,14.82
2019-05-28T01:27:02.690Z,14.79
2019-05-28T01:28:02.615Z,14.73
2019-05-28T01:29:02.627Z,14.78
2019-05-28T01:30:02.610Z,14.78
2019-05-28T01:31:02.605Z,14.85
2019-05-28T01:32:02.610Z,14.79
2019-05-28T01:33:02.638Z,14.86
2019-05-28T01:34:02.569Z,14.78
2019-05-28T01:35:02.574Z,14.91
2019-05-28T01:36:02.534Z,14.79
2019-05-28T01:37:02.550Z,14.86
2019-05-28T01:38:02.548Z,14.86
2019-05-28T01:39:02.489Z,14.81
2019-05-28T01:40:02.504Z,14.79
2019-05-28T01:41:02.485Z,14.79
2019-05-28T01:42:02.474Z,14.81
2019-05-28T01:43:02.476Z,14.81
2019-05-28T01:44:02.485Z,14.79
2019-05-28T01:45:02.426Z,14.79
2019-05-28T01:46:02.434Z,14.81
2019-05-28T01:47:02.411Z,14.78
2019-05-28T01:48:02.406Z,14.79
2019-05-28T01:49:02.455Z,14.84
2019-05-28T01:50:02.370Z,14.91
2019-05-28T01:51:02.375Z,14.88
2019-05-28T01:52:02.378Z,14.97
2019-05-28T01:53:02.347Z,14.94
2019-05-28T01:54:02.356Z,14.88
2019-05-28T01:55:02.374Z,14.92
2019-05-28T01:56:02.334Z,14.88
2019-05-28T01:57:02.367Z,14.91
2019-05-28T01:58:02.310Z,14.91
2019-05-28T01:59:02.286Z,14.96
2019-05-28T02:00:02.318Z,14.89
2019-05-28T02:01:12.043Z,14.89
2019-05-28T02:02:02.235Z,14.79
2019-05-28T02:03:02.246Z,14.79
2019-05-28T02:04:02.241Z,14.82
2019-05-28T02:05:02.380Z,14.84
2019-05-28T02:06:02.215Z,14.77
2019-05-28T02:07:02.176Z,14.82
2019-05-28T02:08:02.169Z,14.73
2019-05-28T02:09:02.179Z,14.69
2019-05-28T02:10:02.152Z,14.70
2019-05-28T02:11:02.193Z,14.69
2019-05-28T02:12:02.175Z,14.69
2019-05-28T02:13:02.116Z,14.72
2019-05-28T02:14:02.101Z,14.69
2019-05-28T02:15:02.109Z,14.69
2019-05-28T02:16:02.087Z,14.70
2019-05-28T02:17:02.097Z,14.69
2019-05-28T02:18:02.087Z,14.72
2019-05-28T02:19:02.054Z,14.72
2019-05-28T02:20:02.039Z,14.68
2019-05-28T02:21:02.053Z,14.68
2019-05-28T02:22:02.061Z,14.55
2019-05-28T02:23:02.020Z,14.63
2019-05-28T02:24:01.993Z,14.63
2019-05-28T02:25:01.979Z,14.60
2019-05-28T02:26:01.985Z,14.69
2019-05-28T02:27:01.998Z,14.65
2019-05-28T02:28:01.962Z,14.60
2019-05-28T02:29:01.968Z,14.66
2019-05-28T02:30:02.339Z,14.62
2019-05-28T02:31:01.932Z,14.55
2019-05-28T02:32:01.914Z,14.62
2019-05-28T02:33:01.943Z,14.68
2019-05-28T02:34:01.903Z,14.62
2019-05-28T02:35:01.904Z,14.63
2019-05-28T02:36:01.861Z,14.66
2019-05-28T02:37:01.861Z,14.65
2019-05-28T02:38:01.879Z,14.69
2019-05-28T02:39:01.828Z,14.66
2019-05-28T02:40:01.858Z,14.70
2019-05-28T02:41:01.805Z,14.70
2019-05-28T02:42:01.790Z,14.78
2019-05-28T02:43:02.200Z,14.72
2019-05-28T02:44:01.808Z,14.78
2019-05-28T02:45:01.778Z,14.70
2019-05-28T02:46:01.787Z,14.73
2019-05-28T02:47:01.746Z,14.69
2019-05-28T02:48:01.733Z,14.73
2019-05-28T02:49:01.744Z,14.70
2019-05-28T02:50:01.718Z,14.70
2019-05-28T02:51:01.718Z,14.78
2019-05-28T02:52:01.718Z,14.72
2019-05-28T02:53:01.667Z,14.72
2019-05-28T02:54:01.776Z,14.78
2019-05-28T02:55:01.674Z,14.77
2019-05-28T02:56:01.665Z,14.72
2019-05-28T02:57:01.649Z,14.77
2019-05-28T02:58:01.652Z,14.70
2019-05-28T02:59:01.660Z,14.81
2019-05-28T03:00:01.666Z,14.78
2019-05-28T03:01:01.607Z,14.86
2019-05-28T03:02:01.590Z,14.79
2019-05-28T03:03:01.585Z,14.88
2019-05-28T03:04:01.589Z,14.84
2019-05-28T03:05:01.752Z,14.81
2019-05-28T03:06:01.542Z,14.86
2019-05-28T03:07:01.547Z,14.86
2019-05-28T03:08:01.524Z,14.82
2019-05-28T03:09:01.522Z,14.85
2019-05-28T03:10:01.525Z,14.78
2019-05-28T03:11:03.848Z,14.77
2019-05-28T03:12:01.478Z,14.85
2019-05-28T03:13:01.487Z,14.84
2019-05-28T03:14:01.453Z,14.81
2019-05-28T03:15:01.460Z,14.77
2019-05-28T03:16:01.498Z,14.84
2019-05-28T03:17:01.475Z,14.81
2019-05-28T03:18:01.428Z,14.84
2019-05-28T03:19:01.415Z,14.85
2019-05-28T03:20:01.404Z,14.92
2019-05-28T03:21:01.409Z,14.92
2019-05-28T03:22:01.413Z,14.94
2019-05-28T03:23:01.342Z,14.91
2019-05-28T03:24:01.354Z,14.96
2019-05-28T03:25:01.327Z,14.96
2019-05-28T03:26:01.330Z,14.91
2019-05-28T03:27:01.377Z,14.97
2019-05-28T03:28:01.295Z,15.02
2019-05-28T03:29:01.278Z,15.03
2019-05-28T03:30:01.284Z,14.89
2019-05-28T03:31:01.275Z,14.99
2019-05-28T03:32:09.538Z,14.97
2019-05-28T03:33:02.312Z,14.96
2019-05-28T03:34:01.226Z,14.97
2019-05-28T03:35:01.243Z,14.96
2019-05-28T03:36:01.220Z,14.94
2019-05-28T03:37:01.216Z,14.96
2019-05-28T03:38:01.237Z,14.89
2019-05-28T03:39:01.161Z,14.82
2019-05-28T03:40:01.163Z,14.81
2019-05-28T03:41:01.151Z,14.73
2019-05-28T03:42:01.147Z,14.79
2019-05-28T03:43:01.166Z,14.79
2019-05-28T03:44:01.136Z,14.72
2019-05-28T03:45:01.106Z,14.81
2019-05-28T03:46:01.084Z,14.79
2019-05-28T03:47:01.091Z,14.73
2019-05-28T03:48:01.102Z,14.78
2019-05-28T03:49:01.060Z,14.79
2019-05-28T03:50:01.053Z,14.81
2019-05-28T03:51:01.029Z,14.81
2019-05-28T03:52:01.030Z,14.78
2019-05-28T03:53:01.097Z,14.81
2019-05-28T03:54:01.019Z,14.70
2019-05-28T03:55:01.007Z,14.72
2019-05-28T03:56:01.029Z,14.73
2019-05-28T03:57:00.968Z,14.78
2019-05-28T03:58:00.960Z,14.81
2019-05-28T03:59:00.986Z,14.81
2019-05-28T04:00:00.947Z,14.84
2019-05-28T04:01:00.960Z,14.77
2019-05-28T04:02:00.948Z,14.84
2019-05-28T04:03:00.909Z,14.86
2019-05-28T04:04:00.966Z,14.79
2019-05-28T04:05:00.910Z,14.79
2019-05-28T04:06:00.873Z,14.81
2019-05-28T04:07:00.878Z,14.77
2019-05-28T04:08:00.926Z,14.77
2019-05-28T04:09:00.894Z,14.73
2019-05-28T04:10:00.880Z,14.86
2019-05-28T04:11:00.834Z,14.81
2019-05-28T04:12:00.812Z,14.79
2019-05-28T04:13:00.796Z,14.77
2019-05-28T04:14:00.783Z,14.79
2019-05-28T04:15:00.810Z,14.77
2019-05-28T04:16:00.760Z,14.79
2019-05-28T04:17:00.773Z,14.82
2019-05-28T04:18:00.733Z,14.86
2019-05-28T04:19:00.733Z,14.82
2019-05-28T04:20:00.788Z,14.84
2019-05-28T04:21:00.705Z,14.82
2019-05-28T04:22:00.706Z,14.79
2019-05-28T04:23:00.713Z,14.81
2019-05-28T04:24:00.673Z,14.77
2019-05-28T04:25:00.698Z,14.81
2019-05-28T04:26:00.682Z,14.84
2019-05-28T04:27:00.655Z,14.79
2019-05-28T04:28:00.636Z,14.77
2019-05-28T04:29:00.621Z,14.84
2019-05-28T04:30:00.607Z,14.77
2019-05-28T04:31:00.654Z,14.81
2019-05-28T04:32:00.582Z,14.81
2019-05-28T04:33:00.574Z,14.81
2019-05-28T04:34:00.579Z,14.81
2019-05-28T04:35:00.559Z,14.60
2019-05-28T04:36:00.542Z,14.59
2019-05-28T04:37:00.543Z,14.54
2019-05-28T04:38:00.515Z,14.53
2019-05-28T04:39:00.507Z,14.48
2019-05-28T04:40:00.512Z,14.51
2019-05-28T04:41:00.495Z,14.50
2019-05-28T04:42:00.531Z,14.44
2019-05-28T04:43:00.476Z,14.47
2019-05-28T04:44:00.455Z,14.50
2019-05-28T04:45:00.449Z,14.47
2019-05-28T04:46:00.450Z,14.45
2019-05-28T04:47:00.415Z,14.48
2019-05-28T04:48:00.415Z,14.45
2019-05-28T04:49:00.390Z,14.53
2019-05-28T04:50:00.386Z,14.53
2019-05-28T04:51:00.384Z,14.54
2019-05-28T04:52:00.411Z,14.53
2019-05-28T04:53:00.402Z,14.55
2019-05-28T04:54:00.356Z,14.63
2019-05-28T04:55:00.329Z,14.70
2019-05-28T04:56:00.318Z,14.63
2019-05-28T04:57:00.311Z,14.55
2019-05-28T04:58:00.338Z,14.69
2019-05-28T04:59:03.700Z,14.69
2019-05-28T05:00:00.280Z,14.72
2019-05-28T05:01:00.292Z,14.77
2019-05-28T05:02:00.246Z,14.73
2019-05-28T05:03:00.958Z,14.68
2019-05-28T05:04:00.275Z,14.63
2019-05-28T05:05:00.328Z,14.62
2019-05-28T05:06:00.215Z,14.63
2019-05-28T05:07:00.207Z,14.60
2019-05-28T05:08:00.185Z,14.63
2019-05-28T05:09:00.249Z,14.54
2019-05-28T05:10:00.216Z,14.63
2019-05-28T05:11:00.154Z,14.58
2019-05-28T05:12:00.150Z,14.66
2019-05-28T05:13:00.183Z,14.73
2019-05-28T05:14:00.143Z,14.77
2019-05-28T05:15:00.192Z,14.82
2019-05-28T05:16:00.089Z,14.79
2019-05-28T05:17:00.092Z,14.86
2019-05-28T05:18:00.095Z,14.78
2019-05-28T05:19:00.072Z,14.79
2019-05-28T05:20:00.131Z,14.86
2019-05-28T05:21:00.057Z,14.81
2019-05-28T05:22:00.026Z,14.85
2019-05-28T05:23:00.029Z,14.84
2019-05-28T05:24:00.028Z,14.86
2019-05-28T05:24:59.994Z,14.88
2019-05-28T05:26:00.041Z,14.96
2019-05-28T05:26:59.969Z,14.84
2019-05-28T05:27:59.967Z,14.89
2019-05-28T05:28:59.959Z,14.91
2019-05-28T05:29:59.985Z,14.97
2019-05-28T05:30:59.985Z,14.99
2019-05-28T05:31:59.934Z,14.96
2019-05-28T05:33:18.576Z,14.91
2019-05-28T05:33:59.903Z,14.89
2019-05-28T05:34:59.901Z,14.81
2019-05-28T05:35:59.882Z,14.86
2019-05-28T05:36:59.884Z,14.92
2019-05-28T05:37:59.865Z,14.89
2019-05-28T05:38:59.837Z,14.94
2019-05-28T05:39:59.830Z,14.92
2019-05-28T05:40:59.838Z,14.96
2019-05-28T05:41:59.857Z,15.02
2019-05-28T05:42:59.803Z,15.03
2019-05-28T05:43:59.813Z,14.94
2019-05-28T05:44:59.785Z,14.97
2019-05-28T05:45:59.775Z,15.02
2019-05-28T05:46:59.774Z,15.02
2019-05-28T05:47:59.781Z,14.96
2019-05-28T05:48:59.734Z,14.97
2019-05-28T05:49:59.757Z,14.96
2019-05-28T05:50:59.705Z,15.00
2019-05-28T05:51:59.702Z,15.07
2019-05-28T05:52:59.737Z,15.06
2019-05-28T05:53:59.674Z,15.00
2019-05-28T05:54:59.678Z,15.07
2019-05-28T05:55:59.677Z,15.02
2019-05-28T05:56:59.642Z,14.94
2019-05-28T05:57:59.693Z,14.91
2019-05-28T05:58:59.651Z,14.81
2019-05-28T05:59:59.625Z,14.91
2019-05-28T06:00:59.624Z,14.79
2019-05-28T06:01:59.613Z,14.92
2019-05-28T06:02:59.628Z,14.96
2019-05-28T06:03:59.637Z,14.97
2019-05-28T06:04:59.545Z,14.96
2019-05-28T06:05:59.549Z,14.97
2019-05-28T06:06:59.553Z,14.84
2019-05-28T06:07:59.519Z,14.86
2019-05-28T06:09:00.003Z,14.79
2019-05-28T06:09:59.530Z,14.92
2019-05-28T06:10:59.483Z,14.94
2019-05-28T06:11:59.486Z,14.89
2019-05-28T06:12:59.491Z,14.92
2019-05-28T06:13:59.450Z,14.97
2019-05-28T06:14:59.647Z,15.03
2019-05-28T06:15:59.459Z,14.97
2019-05-28T06:16:59.419Z,15.00
2019-05-28T06:17:59.417Z,15.04
2019-05-28T06:18:59.449Z,15.07
2019-05-28T06:19:59.401Z,15.18
2019-05-28T06:21:12.661Z,15.10
2019-05-28T06:22:00.382Z,15.21
2019-05-28T06:22:59.360Z,15.11
2019-05-28T06:23:59.367Z,15.27
2019-05-28T06:24:59.366Z,15.27
2019-05-28T06:25:59.382Z,15.10
2019-05-28T06:26:59.329Z,15.11
2019-05-28T06:27:59.295Z,15.27
2019-05-28T06:28:59.294Z,15.14
2019-05-28T06:29:59.294Z,15.25
2019-05-28T06:30:59.278Z,15.17
2019-05-28T06:31:59.316Z,15.15
2019-05-28T06:32:59.263Z,15.27
2019-05-28T06:33:59.282Z,15.24
2019-05-28T06:34:59.226Z,15.27
2019-05-28T06:35:59.232Z,15.31
2019-05-28T06:36:59.248Z,15.31
2019-05-28T06:37:59.206Z,15.36
2019-05-28T06:38:59.210Z,15.44
2019-05-28T06:39:59.226Z,15.47
2019-05-28T06:40:59.163Z,15.46
2019-05-28T06:41:59.578Z,15.54
2019-05-28T06:42:59.172Z,15.58
2019-05-28T06:43:59.139Z,15.59
2019-05-28T06:44:59.129Z,15.59
2019-05-28T06:45:59.108Z,15.72
2019-05-28T06:46:59.082Z,15.59
2019-05-28T06:47:59.577Z,15.55
2019-05-28T06:48:59.071Z,15.57
2019-05-28T06:49:59.069Z,15.58
2019-05-28T06:50:59.066Z,15.44
2019-05-28T06:51:59.045Z,15.59
2019-05-28T06:52:59.030Z,15.62
2019-05-28T06:53:59.036Z,15.57
2019-05-28T06:54:59.021Z,15.70
2019-05-28T06:55:58.991Z,15.68
2019-05-28T06:56:59.015Z,15.75
2019-05-28T06:57:58.963Z,15.80
2019-05-28T06:58:59.033Z,15.72
2019-05-28T06:59:58.978Z,15.72
2019-05-28T07:00:58.982Z,15.83
2019-05-28T07:01:58.953Z,15.80
2019-05-28T07:02:58.952Z,15.83
2019-05-28T07:04:12.848Z,15.77
2019-05-28T07:04:59.073Z,15.86
2019-05-28T07:06:07.271Z,15.98
2019-05-28T07:06:59.251Z,16.05
2019-05-28T07:07:58.885Z,16.01
2019-05-28T07:08:58.884Z,16.02
2019-05-28T07:09:58.990Z,16.01
2019-05-28T07:10:59.107Z,16.01
2019-05-28T07:11:58.851Z,16.01
2019-05-28T07:12:58.951Z,16.00
2019-05-28T07:13:58.832Z,15.98
2019-05-28T07:14:59.009Z,15.86
2019-05-28T07:15:58.785Z,15.79
2019-05-28T07:16:58.826Z,15.90
2019-05-28T07:17:59.730Z,15.90
2019-05-28T07:18:58.754Z,15.95
2019-05-28T07:19:58.763Z,16.08
2019-05-28T07:20:58.722Z,16.09
2019-05-28T07:21:59.088Z,16.12
2019-05-28T07:22:58.709Z,16.17
2019-05-28T07:23:58.764Z,16.16
2019-05-28T07:24:58.696Z,16.24
2019-05-28T07:25:58.681Z,16.26
2019-05-28T07:26:58.648Z,16.32
2019-05-28T07:28:10.381Z,16.35
2019-05-28T07:28:59.773Z,16.41
2019-05-28T07:29:58.626Z,16.49
2019-05-28T07:30:58.635Z,16.38
2019-05-28T07:31:58.588Z,16.42
2019-05-28T07:32:58.591Z,16.32
2019-05-28T07:33:58.578Z,16.39
2019-05-28T07:34:58.585Z,16.54
2019-05-28T07:35:58.573Z,16.46
2019-05-28T07:36:58.551Z,16.56
2019-05-28T07:37:58.525Z,16.53
2019-05-28T07:38:58.516Z,16.60
2019-05-28T07:39:58.594Z,16.57
2019-05-28T07:40:58.495Z,16.61
2019-05-28T07:41:58.504Z,16.53
2019-05-28T07:42:58.823Z,16.65
2019-05-28T07:43:58.460Z,16.57
2019-05-28T07:44:58.458Z,16.50
2019-05-28T07:45:58.480Z,16.58
2019-05-28T07:46:58.446Z,16.57
2019-05-28T07:47:58.457Z,16.51
2019-05-28T07:48:58.437Z,16.61
2019-05-28T07:49:58.395Z,16.60
2019-05-28T07:50:58.469Z,16.66
2019-05-28T07:51:58.394Z,16.75
2019-05-28T07:52:58.374Z,16.61
2019-05-28T07:53:58.368Z,16.69
2019-05-28T07:54:58.375Z,16.64
2019-05-28T07:55:58.337Z,16.57
2019-05-28T07:56:58.385Z,16.56
2019-05-28T07:57:58.361Z,16.42
2019-05-28T07:58:58.308Z,16.49
2019-05-28T07:59:58.306Z,16.50
2019-05-28T08:00:58.270Z,16.50
2019-05-28T08:01:58.329Z,16.58
2019-05-28T08:02:58.272Z,16.60
2019-05-28T08:03:58.279Z,16.56
2019-05-28T08:04:58.241Z,16.42
2019-05-28T08:05:58.239Z,16.36
2019-05-28T08:06:58.241Z,16.17
2019-05-28T08:07:58.253Z,16.20
2019-05-28T08:08:58.195Z,16.31
2019-05-28T08:09:58.212Z,16.29
2019-05-28T08:10:58.179Z,16.46
2019-05-28T08:11:58.181Z,16.47
2019-05-28T08:12:58.233Z,16.43
2019-05-28T08:13:58.127Z,16.51
2019-05-28T08:14:58.140Z,16.60
2019-05-28T08:16:16.783Z,16.71
2019-05-28T08:16:59.091Z,16.71
2019-05-28T08:17:58.142Z,16.75
2019-05-28T08:18:58.119Z,16.79
2019-05-28T08:19:58.061Z,16.86
2019-05-28T08:20:58.075Z,17.01
2019-05-28T08:21:58.046Z,16.81
2019-05-28T08:22:58.060Z,16.87
2019-05-28T08:23:58.059Z,17.02
2019-05-28T08:24:58.076Z,16.96
2019-05-28T08:26:01.622Z,17.04
2019-05-28T08:26:58.012Z,16.86
2019-05-28T08:28:18.243Z,16.90
2019-05-28T08:28:59.870Z,16.97
2019-05-28T08:29:57.998Z,16.94
2019-05-28T08:31:14.015Z,16.94
2019-05-28T08:31:58.967Z,16.97
2019-05-28T08:32:57.966Z,17.05
2019-05-28T08:33:57.920Z,17.06
2019-05-28T08:35:05.279Z,17.12
2019-05-28T08:35:57.886Z,17.23
2019-05-28T08:37:05.768Z,17.16
2019-05-28T08:37:57.873Z,17.15
2019-05-28T08:38:57.852Z,17.16
2019-05-28T08:39:57.902Z,17.24
2019-05-28T08:40:57.865Z,17.30
2019-05-28T08:41:57.824Z,17.31
2019-05-28T08:42:57.959Z,17.24
2019-05-28T08:43:57.831Z,17.20
2019-05-28T08:44:57.790Z,17.22
2019-05-28T08:45:57.845Z,17.19
2019-05-28T08:46:57.795Z,17.31
2019-05-28T08:47:57.752Z,17.34
2019-05-28T08:48:57.753Z,17.34
2019-05-28T08:49:57.826Z,17.48
2019-05-28T08:50:57.730Z,17.60
2019-05-28T08:51:57.723Z,17.59
2019-05-28T08:52:57.692Z,17.63
2019-05-28T08:53:57.749Z,17.72
2019-05-28T08:54:57.691Z,17.74
2019-05-28T08:55:57.665Z,17.74
2019-05-28T08:56:57.664Z,17.83
2019-05-28T08:58:01.249Z,17.83
2019-05-28T08:58:57.646Z,17.86
2019-05-28T08:59:57.671Z,17.94
2019-05-28T09:00:58.494Z,17.98
2019-05-28T09:01:57.604Z,17.94
2019-05-28T09:02:57.639Z,17.87
2019-05-28T09:03:58.467Z,17.76
2019-05-28T09:04:57.632Z,17.70
2019-05-28T09:05:57.558Z,17.52
2019-05-28T09:06:57.561Z,17.60
2019-05-28T09:07:58.044Z,17.56
2019-05-28T09:08:57.547Z,17.52
2019-05-28T09:09:57.537Z,17.49
2019-05-28T09:10:57.510Z,17.63
2019-05-28T09:11:57.499Z,17.59
2019-05-28T09:12:57.689Z,17.76
2019-05-28T09:13:57.524Z,17.79
2019-05-28T09:14:57.492Z,17.86
2019-05-28T09:15:57.461Z,17.94
2019-05-28T09:16:57.486Z,17.83
2019-05-28T09:17:57.490Z,17.87
2019-05-28T09:18:57.474Z,17.86
2019-05-28T09:20:03.317Z,17.87
2019-05-28T09:20:57.463Z,17.98
2019-05-28T09:21:57.389Z,18.13
2019-05-28T09:22:57.416Z,18.20
2019-05-28T09:23:57.356Z,18.20
2019-05-28T09:24:57.410Z,18.18
2019-05-28T09:25:57.344Z,17.89
2019-05-28T09:26:57.323Z,17.87
2019-05-28T09:27:57.333Z,17.98
2019-05-28T09:28:57.384Z,18.00
2019-05-28T09:29:57.286Z,18.13
2019-05-28T09:30:57.289Z,18.19
2019-05-28T09:31:57.264Z,18.19
2019-05-28T09:32:57.268Z,18.29
2019-05-28T09:33:57.268Z,18.34
2019-05-28T09:34:57.274Z,18.45
2019-05-28T09:36:07.953Z,18.53
2019-05-28T09:36:57.230Z,18.55
2019-05-28T09:37:57.234Z,18.63
2019-05-28T09:38:57.200Z,18.52
2019-05-28T09:39:57.248Z,18.47
2019-05-28T09:40:57.208Z,18.41
2019-05-28T09:41:57.163Z,18.50
2019-05-28T09:42:57.165Z,18.49
2019-05-28T09:43:57.176Z,18.47
2019-05-28T09:44:57.133Z,18.44
2019-05-28T09:45:57.150Z,18.47
2019-05-28T09:46:57.099Z,18.55
2019-05-28T09:47:57.099Z,18.65
2019-05-28T09:48:57.080Z,18.63
2019-05-28T09:49:57.079Z,18.78
2019-05-28T09:50:57.078Z,18.74
2019-05-28T09:51:57.082Z,18.74
2019-05-28T09:52:57.032Z,18.75
2019-05-28T09:53:57.044Z,18.81
2019-05-28T09:54:57.045Z,18.73
2019-05-28T09:55:57.054Z,18.83
2019-05-28T09:56:57.021Z,18.80
2019-05-28T09:57:57.014Z,18.71
2019-05-28T09:58:56.981Z,18.73
2019-05-28T09:59:56.978Z,18.78
2019-05-28T10:00:58.902Z,18.86
2019-05-28T10:01:56.948Z,18.83
2019-05-28T10:02:56.949Z,18.74
2019-05-28T10:03:56.951Z,18.66
2019-05-28T10:04:56.908Z,18.66
2019-05-28T10:06:07.029Z,18.65
2019-05-28T10:06:56.919Z,18.66
2019-05-28T10:07:56.887Z,18.75
2019-05-28T10:08:56.894Z,18.65
2019-05-28T10:09:56.847Z,18.74
2019-05-28T10:10:56.847Z,18.83
2019-05-28T10:11:56.853Z,18.92
2019-05-28T10:12:56.820Z,18.92
2019-05-28T10:13:56.821Z,18.98
2019-05-28T10:14:56.871Z,18.98
2019-05-28T10:15:56.844Z,18.88
2019-05-28T10:16:56.784Z,18.78
2019-05-28T10:17:56.781Z,18.84
2019-05-28T10:18:56.750Z,18.81
2019-05-28T10:19:56.757Z,18.81
2019-05-28T10:20:56.810Z,18.75
2019-05-28T10:21:56.727Z,18.83
2019-05-28T10:22:56.785Z,18.89
2019-05-28T10:23:56.719Z,19.00
2019-05-28T10:24:56.699Z,18.81
2019-05-28T10:25:56.745Z,18.47
2019-05-28T10:26:56.704Z,18.65
2019-05-28T10:28:01.480Z,18.74
2019-05-28T10:28:57.640Z,18.70
2019-05-28T10:29:56.626Z,18.71
2019-05-28T10:30:56.624Z,18.78
2019-05-28T10:31:56.684Z,18.74
2019-05-28T10:32:56.593Z,18.68
2019-05-28T10:33:56.598Z,18.63
2019-05-28T10:35:03.653Z,18.62
2019-05-28T10:35:56.565Z,18.66
2019-05-28T10:36:56.608Z,18.59
2019-05-28T10:37:56.639Z,18.63
2019-05-28T10:38:56.527Z,18.68
2019-05-28T10:39:56.535Z,18.65
2019-05-28T10:40:56.543Z,18.70
2019-05-28T10:41:56.495Z,18.68
2019-05-28T10:42:56.551Z,18.77
2019-05-28T10:43:56.510Z,18.88
2019-05-28T10:44:56.524Z,18.86
2019-05-28T10:45:56.479Z,19.00
2019-05-28T10:46:56.476Z,18.98
2019-05-28T10:47:56.470Z,18.88
2019-05-28T10:48:56.482Z,18.81
2019-05-28T10:49:56.451Z,18.77
2019-05-28T10:50:56.402Z,18.74
2019-05-28T10:51:56.399Z,18.71
2019-05-28T10:52:56.417Z,18.73
2019-05-28T10:53:56.423Z,18.74
2019-05-28T10:54:56.379Z,18.83
2019-05-28T10:55:56.935Z,18.98
2019-05-28T10:56:56.341Z,19.09
2019-05-28T10:57:56.348Z,19.12
2019-05-28T10:58:56.339Z,19.15
2019-05-28T10:59:56.360Z,19.29
2019-05-28T11:00:56.323Z,19.15
2019-05-28T11:01:56.273Z,19.16
2019-05-28T11:02:56.283Z,19.02
2019-05-28T11:03:56.251Z,19.04
2019-05-28T11:04:56.311Z,18.92
2019-05-28T11:05:56.239Z,18.96
2019-05-28T11:06:56.237Z,18.99
2019-05-28T11:07:56.208Z,18.98
2019-05-28T11:08:56.213Z,18.99
2019-05-28T11:09:56.204Z,18.89
2019-05-28T11:10:56.220Z,18.86
2019-05-28T11:11:56.187Z,18.81
2019-05-28T11:12:56.190Z,18.86
2019-05-28T11:13:56.224Z,18.89
2019-05-28T11:14:56.153Z,18.93
2019-05-28T11:15:56.211Z,18.98
2019-05-28T11:16:56.123Z,18.98
2019-05-28T11:17:56.163Z,18.74
2019-05-28T11:18:56.103Z,18.73
2019-05-28T11:19:56.087Z,18.63
2019-05-28T11:20:56.093Z,18.37
2019-05-28T11:21:56.088Z,18.22
2019-05-28T11:22:56.058Z,18.31
2019-05-28T11:23:56.079Z,18.28
2019-05-28T11:24:56.044Z,18.38
2019-05-28T11:25:56.025Z,18.50
2019-05-28T11:26:56.083Z,18.65
2019-05-28T11:27:56.004Z,18.78
2019-05-28T11:28:56.020Z,18.78
2019-05-28T11:29:55.984Z,18.71
2019-05-28T11:30:55.957Z,18.83
2019-05-28T11:31:55.959Z,18.84
2019-05-28T11:32:55.973Z,18.93
2019-05-28T11:33:55.943Z,18.88
2019-05-28T11:34:55.940Z,18.92
2019-05-28T11:35:55.921Z,18.86
2019-05-28T11:37:08.865Z,18.84
2019-05-28T11:37:55.939Z,18.92
2019-05-28T11:38:55.872Z,18.88
2019-05-28T11:39:55.877Z,18.98
2019-05-28T11:40:55.854Z,18.98
2019-05-28T11:41:55.849Z,19.14
2019-05-28T11:42:55.831Z,19.14
2019-05-28T11:43:55.838Z,18.99
2019-05-28T11:44:55.817Z,19.04
2019-05-28T11:45:55.791Z,19.02
2019-05-28T11:46:55.853Z,19.07
2019-05-28T11:47:55.790Z,19.11
2019-05-28T11:48:55.793Z,19.07
2019-05-28T11:49:55.764Z,19.02
2019-05-28T11:50:55.748Z,19.00
2019-05-28T11:51:55.965Z,18.95
2019-05-28T11:52:55.729Z,18.92
2019-05-28T11:53:55.738Z,18.74
2019-05-28T11:54:55.726Z,18.65
2019-05-28T11:55:55.684Z,18.71
2019-05-28T11:56:55.690Z,18.70
2019-05-28T11:57:55.706Z,18.81
2019-05-28T11:58:55.668Z,18.80
2019-05-28T11:59:55.655Z,18.80
2019-05-28T12:00:55.643Z,18.88
2019-05-28T12:01:55.624Z,18.80
2019-05-28T12:02:55.624Z,18.81
2019-05-28T12:03:55.606Z,18.83
2019-05-28T12:04:55.594Z,18.96
2019-05-28T12:05:55.618Z,18.96
2019-05-28T12:06:55.580Z,19.02
2019-05-28T12:07:55.610Z,19.02
2019-05-28T12:08:55.559Z,19.07
2019-05-28T12:09:55.533Z,19.07
2019-05-28T12:10:55.526Z,18.98
2019-05-28T12:11:55.536Z,19.09
2019-05-28T12:12:55.496Z,19.16
2019-05-28T12:13:55.523Z,19.19
2019-05-28T12:14:55.496Z,19.31
2019-05-28T12:15:55.473Z,19.44
2019-05-28T12:16:55.465Z,19.37
2019-05-28T12:17:55.473Z,19.40
2019-05-28T12:18:58.302Z,19.27
2019-05-28T12:19:55.434Z,19.29
2019-05-28T12:20:55.437Z,19.29
2019-05-28T12:21:55.402Z,19.26
2019-05-28T12:23:10.318Z,19.37
2019-05-28T12:23:55.445Z,19.29
2019-05-28T12:24:55.369Z,19.34
2019-05-28T12:25:55.380Z,19.31
2019-05-28T12:26:55.437Z,19.36
2019-05-28T12:27:55.898Z,19.36
2019-05-28T12:28:55.340Z,19.39
2019-05-28T12:29:55.337Z,19.51
2019-05-28T12:30:55.346Z,19.54
2019-05-28T12:31:55.624Z,19.58
2019-05-28T12:32:55.315Z,19.63
2019-05-28T12:33:55.283Z,19.62
2019-05-28T12:34:55.276Z,19.67
2019-05-28T12:35:55.288Z,19.63
2019-05-28T12:36:55.302Z,19.64
2019-05-28T12:37:55.250Z,19.54
2019-05-28T12:38:55.237Z,19.41
2019-05-28T12:39:55.212Z,19.45
2019-05-28T12:40:55.210Z,19.47
2019-05-28T12:42:03.183Z,19.45
2019-05-28T12:42:55.226Z,19.52
2019-05-28T12:43:55.168Z,19.40
2019-05-28T12:45:08.886Z,19.37
2019-05-28T12:45:56.132Z,19.37
2019-05-28T12:46:55.156Z,19.37
2019-05-28T12:48:09.042Z,19.11
2019-05-28T12:48:56.163Z,18.95
2019-05-28T12:49:55.104Z,18.99
2019-05-28T12:50:55.084Z,18.92
2019-05-28T12:51:55.091Z,18.99